sensor_id;sensor_type;location;lat;lon;timestamp;P1;durP1;ratioP1;P2;durP2;ratioP2
22250;SDS011;59348;52.158;5.588;2023-02-08T00:02:06;19.98;;;9.38;;
22250;SDS011;59348;52.158;5.588;2023-02-08T00:04:34;17.42;;;9.80;;
22250;SDS011;59348;52.158;5.588;2023-02-08T00:07:02;14.02;;;9.13;;
22250;SDS011;59348;52.158;5.588;2023-02-08T00:09:29;14.82;;;8.95;;
22250;SDS011;59348;52.158;5.588;2023-02-08T00:11:56;13.88;;;8.95;;
22250;SDS011;59348;52.158;5.588;2023-02-08T00:14:24;15.77;;;9.32;;
22250;SDS011;59348;52.158;5.588;2023-02-08T00:16:51;14.93;;;9.30;;
22250;SDS011;59348;52.158;5.588;2023-02-08T00:19:18;19.13;;;9.77;;
22250;SDS011;59348;52.158;5.588;2023-02-08T00:21:47;15.25;;;9.68;;
22250;SDS011;59348;52.158;5.588;2023-02-08T00:24:14;17.15;;;9.93;;
22250;SDS011;59348;52.158;5.588;2023-02-08T00:26:41;15.75;;;9.38;;
22250;SDS011;59348;52.158;5.588;2023-02-08T00:29:08;16.80;;;10.13;;
22250;SDS011;59348;52.158;5.588;2023-02-08T00:31:36;15.48;;;9.80;;
22250;SDS011;59348;52.158;5.588;2023-02-08T00:34:04;13.93;;;8.77;;
22250;SDS011;59348;52.158;5.588;2023-02-08T00:36:31;14.13;;;9.25;;
22250;SDS011;59348;52.158;5.588;2023-02-08T00:38:59;13.77;;;8.70;;
22250;SDS011;59348;52.158;5.588;2023-02-08T00:41:27;15.63;;;9.13;;
22250;SDS011;59348;52.158;5.588;2023-02-08T00:43:54;13.50;;;9.02;;
22250;SDS011;59348;52.158;5.588;2023-02-08T00:46:22;15.57;;;9.18;;
22250;SDS011;59348;52.158;5.588;2023-02-08T00:48:49;15.38;;;10.40;;
22250;SDS011;59348;52.158;5.588;2023-02-08T00:51:16;15.15;;;9.88;;
22250;SDS011;59348;52.158;5.588;2023-02-08T00:53:44;16.95;;;9.43;;
22250;SDS011;59348;52.158;5.588;2023-02-08T00:56:13;15.93;;;9.25;;
22250;SDS011;59348;52.158;5.588;2023-02-08T00:58:40;14.90;;;8.80;;
22250;SDS011;59348;52.158;5.588;2023-02-08T01:01:08;17.95;;;9.50;;
22250;SDS011;59348;52.158;5.588;2023-02-08T01:03:36;15.48;;;9.18;;
22250;SDS011;59348;52.158;5.588;2023-02-08T01:06:05;13.43;;;9.32;;
22250;SDS011;59348;52.158;5.588;2023-02-08T01:08:33;16.17;;;9.60;;
22250;SDS011;59348;52.158;5.588;2023-02-08T01:11:01;14.35;;;8.98;;
22250;SDS011;59348;52.158;5.588;2023-02-08T01:13:30;14.70;;;9.00;;
22250;SDS011;59348;52.158;5.588;2023-02-08T01:16:04;15.85;;;9.32;;
22250;SDS011;59348;52.158;5.588;2023-02-08T01:18:31;17.17;;;9.45;;
22250;SDS011;59348;52.158;5.588;2023-02-08T01:21:02;18.60;;;9.43;;
22250;SDS011;59348;52.158;5.588;2023-02-08T01:23:29;13.73;;;9.23;;
22250;SDS011;59348;52.158;5.588;2023-02-08T01:25:56;15.77;;;9.40;;
22250;SDS011;59348;52.158;5.588;2023-02-08T01:28:23;20.27;;;9.77;;
22250;SDS011;59348;52.158;5.588;2023-02-08T01:30:52;14.55;;;9.80;;
22250;SDS011;59348;52.158;5.588;2023-02-08T01:33:19;17.33;;;9.48;;
22250;SDS011;59348;52.158;5.588;2023-02-08T01:35:48;17.02;;;10.00;;
22250;SDS011;59348;52.158;5.588;2023-02-08T01:38:16;14.75;;;9.18;;
22250;SDS011;59348;52.158;5.588;2023-02-08T01:40:43;16.30;;;9.18;;
22250;SDS011;59348;52.158;5.588;2023-02-08T01:43:15;16.92;;;10.55;;
22250;SDS011;59348;52.158;5.588;2023-02-08T01:45:42;16.65;;;9.63;;
22250;SDS011;59348;52.158;5.588;2023-02-08T01:48:12;15.52;;;9.90;;
22250;SDS011;59348;52.158;5.588;2023-02-08T01:50:42;15.40;;;10.00;;
22250;SDS011;59348;52.158;5.588;2023-02-08T01:53:10;15.18;;;9.57;;
22250;SDS011;59348;52.158;5.588;2023-02-08T01:55:39;16.10;;;10.48;;
22250;SDS011;59348;52.158;5.588;2023-02-08T01:58:09;17.00;;;9.85;;
22250;SDS011;59348;52.158;5.588;2023-02-08T02:00:37;14.70;;;9.68;;
22250;SDS011;59348;52.158;5.588;2023-02-08T02:03:05;16.17;;;9.70;;
22250;SDS011;59348;52.158;5.588;2023-02-08T02:05:38;15.88;;;10.23;;
22250;SDS011;59348;52.158;5.588;2023-02-08T02:08:07;17.15;;;10.48;;
22250;SDS011;59348;52.158;5.588;2023-02-08T02:10:35;17.33;;;10.88;;
22250;SDS011;59348;52.158;5.588;2023-02-08T02:13:05;16.45;;;9.88;;
22250;SDS011;59348;52.158;5.588;2023-02-08T02:15:33;17.05;;;10.38;;
22250;SDS011;59348;52.158;5.588;2023-02-08T02:18:00;17.55;;;10.35;;
22250;SDS011;59348;52.158;5.588;2023-02-08T02:20:32;16.27;;;10.50;;
22250;SDS011;59348;52.158;5.588;2023-02-08T02:23:18;16.13;;;10.15;;
22250;SDS011;59348;52.158;5.588;2023-02-08T02:25:55;15.32;;;10.02;;
22250;SDS011;59348;52.158;5.588;2023-02-08T02:28:40;17.90;;;10.25;;
22250;SDS011;59348;52.158;5.588;2023-02-08T02:31:24;16.98;;;10.35;;
22250;SDS011;59348;52.158;5.588;2023-02-08T02:33:55;17.30;;;10.20;;
22250;SDS011;59348;52.158;5.588;2023-02-08T02:36:28;19.45;;;10.30;;
22250;SDS011;59348;52.158;5.588;2023-02-08T02:38:59;14.57;;;9.65;;
22250;SDS011;59348;52.158;5.588;2023-02-08T02:41:38;15.23;;;9.80;;
22250;SDS011;59348;52.158;5.588;2023-02-08T02:44:28;16.85;;;10.55;;
22250;SDS011;59348;52.158;5.588;2023-02-08T02:47:18;15.65;;;9.63;;
22250;SDS011;59348;52.158;5.588;2023-02-08T02:49:58;19.98;;;11.35;;
22250;SDS011;59348;52.158;5.588;2023-02-08T02:52:36;17.25;;;10.60;;
22250;SDS011;59348;52.158;5.588;2023-02-08T02:55:27;16.10;;;10.40;;
22250;SDS011;59348;52.158;5.588;2023-02-08T02:58:06;17.15;;;10.30;;
22250;SDS011;59348;52.158;5.588;2023-02-08T03:00:57;15.50;;;9.98;;
22250;SDS011;59348;52.158;5.588;2023-02-08T03:03:49;16.80;;;10.45;;
22250;SDS011;59348;52.158;5.588;2023-02-08T03:06:28;17.00;;;10.20;;
22250;SDS011;59348;52.158;5.588;2023-02-08T03:12:18;14.98;;;9.32;;
22250;SDS011;59348;52.158;5.588;2023-02-08T03:14:57;15.70;;;9.45;;
22250;SDS011;59348;52.158;5.588;2023-02-08T03:17:48;20.63;;;10.10;;
22250;SDS011;59348;52.158;5.588;2023-02-08T03:22:58;16.90;;;10.63;;
22250;SDS011;59348;52.158;5.588;2023-02-08T03:25:37;17.33;;;10.23;;
22250;SDS011;59348;52.158;5.588;2023-02-08T03:28:19;15.63;;;9.73;;
22250;SDS011;59348;52.158;5.588;2023-02-08T03:31:17;15.90;;;10.48;;
22250;SDS011;59348;52.158;5.588;2023-02-08T03:34:00;14.98;;;9.75;;
22250;SDS011;59348;52.158;5.588;2023-02-08T03:36:37;16.65;;;10.55;;
22250;SDS011;59348;52.158;5.588;2023-02-08T03:39:28;15.45;;;9.40;;
22250;SDS011;59348;52.158;5.588;2023-02-08T03:42:18;13.77;;;9.90;;
22250;SDS011;59348;52.158;5.588;2023-02-08T03:45:08;18.65;;;10.60;;
22250;SDS011;59348;52.158;5.588;2023-02-08T03:47:45;17.13;;;10.27;;
22250;SDS011;59348;52.158;5.588;2023-02-08T03:53:06;15.88;;;10.00;;
22250;SDS011;59348;52.158;5.588;2023-02-08T03:55:35;13.88;;;9.30;;
22250;SDS011;59348;52.158;5.588;2023-02-08T03:58:04;16.77;;;9.80;;
22250;SDS011;59348;52.158;5.588;2023-02-08T04:00:33;13.73;;;9.43;;
22250;SDS011;59348;52.158;5.588;2023-02-08T04:03:04;16.98;;;9.32;;
22250;SDS011;59348;52.158;5.588;2023-02-08T04:05:32;16.05;;;9.40;;
22250;SDS011;59348;52.158;5.588;2023-02-08T04:08:00;19.17;;;9.20;;
22250;SDS011;59348;52.158;5.588;2023-02-08T04:10:27;18.73;;;9.65;;
22250;SDS011;59348;52.158;5.588;2023-02-08T04:12:56;15.27;;;9.52;;
22250;SDS011;59348;52.158;5.588;2023-02-08T04:15:23;16.42;;;9.10;;
22250;SDS011;59348;52.158;5.588;2023-02-08T04:17:52;13.48;;;9.38;;
22250;SDS011;59348;52.158;5.588;2023-02-08T04:20:19;16.48;;;10.50;;
22250;SDS011;59348;52.158;5.588;2023-02-08T04:22:46;15.98;;;9.95;;
22250;SDS011;59348;52.158;5.588;2023-02-08T04:25:14;15.93;;;9.85;;
22250;SDS011;59348;52.158;5.588;2023-02-08T04:27:41;14.23;;;9.68;;
22250;SDS011;59348;52.158;5.588;2023-02-08T04:30:10;17.13;;;10.23;;
22250;SDS011;59348;52.158;5.588;2023-02-08T04:32:37;17.58;;;10.05;;
22250;SDS011;59348;52.158;5.588;2023-02-08T04:35:05;17.77;;;9.73;;
22250;SDS011;59348;52.158;5.588;2023-02-08T04:37:32;15.38;;;10.20;;
22250;SDS011;59348;52.158;5.588;2023-02-08T04:39:59;21.45;;;10.13;;
22250;SDS011;59348;52.158;5.588;2023-02-08T04:42:26;15.75;;;10.48;;
22250;SDS011;59348;52.158;5.588;2023-02-08T04:44:54;16.42;;;10.07;;
22250;SDS011;59348;52.158;5.588;2023-02-08T04:47:23;18.73;;;10.18;;
22250;SDS011;59348;52.158;5.588;2023-02-08T04:49:50;17.88;;;10.68;;
22250;SDS011;59348;52.158;5.588;2023-02-08T04:52:17;16.88;;;10.15;;
22250;SDS011;59348;52.158;5.588;2023-02-08T04:54:45;16.52;;;9.88;;
22250;SDS011;59348;52.158;5.588;2023-02-08T04:57:12;16.80;;;10.05;;
22250;SDS011;59348;52.158;5.588;2023-02-08T04:59:40;17.73;;;10.38;;
22250;SDS011;59348;52.158;5.588;2023-02-08T05:02:07;15.88;;;9.68;;
22250;SDS011;59348;52.158;5.588;2023-02-08T05:04:35;14.10;;;9.07;;
22250;SDS011;59348;52.158;5.588;2023-02-08T05:07:03;16.13;;;8.25;;
22250;SDS011;59348;52.158;5.588;2023-02-08T05:09:30;20.98;;;9.50;;
22250;SDS011;59348;52.158;5.588;2023-02-08T05:11:58;16.23;;;10.05;;
22250;SDS011;59348;52.158;5.588;2023-02-08T05:14:25;17.42;;;10.20;;
22250;SDS011;59348;52.158;5.588;2023-02-08T05:16:52;15.98;;;9.77;;
22250;SDS011;59348;52.158;5.588;2023-02-08T05:19:19;19.00;;;10.20;;
22250;SDS011;59348;52.158;5.588;2023-02-08T05:21:56;20.80;;;11.00;;
22250;SDS011;59348;52.158;5.588;2023-02-08T05:24:36;15.98;;;10.05;;
22250;SDS011;59348;52.158;5.588;2023-02-08T05:27:06;14.88;;;9.77;;
22250;SDS011;59348;52.158;5.588;2023-02-08T05:29:34;17.58;;;9.93;;
22250;SDS011;59348;52.158;5.588;2023-02-08T05:32:07;18.33;;;10.15;;
22250;SDS011;59348;52.158;5.588;2023-02-08T05:34:45;16.52;;;10.25;;
22250;SDS011;59348;52.158;5.588;2023-02-08T05:37:14;16.75;;;9.57;;
22250;SDS011;59348;52.158;5.588;2023-02-08T05:39:41;14.80;;;10.02;;
22250;SDS011;59348;52.158;5.588;2023-02-08T05:42:08;16.58;;;9.88;;
22250;SDS011;59348;52.158;5.588;2023-02-08T05:44:36;18.15;;;10.05;;
22250;SDS011;59348;52.158;5.588;2023-02-08T05:47:03;18.38;;;9.55;;
22250;SDS011;59348;52.158;5.588;2023-02-08T05:49:30;21.70;;;11.05;;
22250;SDS011;59348;52.158;5.588;2023-02-08T05:51:57;23.70;;;11.73;;
22250;SDS011;59348;52.158;5.588;2023-02-08T05:54:26;20.92;;;12.32;;
22250;SDS011;59348;52.158;5.588;2023-02-08T05:56:53;20.52;;;12.13;;
22250;SDS011;59348;52.158;5.588;2023-02-08T05:59:21;21.00;;;11.55;;
22250;SDS011;59348;52.158;5.588;2023-02-08T06:01:48;23.48;;;12.43;;
22250;SDS011;59348;52.158;5.588;2023-02-08T06:04:15;24.42;;;12.15;;
22250;SDS011;59348;52.158;5.588;2023-02-08T06:06:42;21.30;;;11.77;;
22250;SDS011;59348;52.158;5.588;2023-02-08T06:09:10;22.95;;;12.00;;
22250;SDS011;59348;52.158;5.588;2023-02-08T06:14:36;20.58;;;11.45;;
22250;SDS011;59348;52.158;5.588;2023-02-08T06:17:07;21.85;;;10.85;;
22250;SDS011;59348;52.158;5.588;2023-02-08T06:19:47;19.92;;;10.77;;
22250;SDS011;59348;52.158;5.588;2023-02-08T06:22:27;18.95;;;10.40;;
22250;SDS011;59348;52.158;5.588;2023-02-08T06:24:54;17.77;;;10.25;;
22250;SDS011;59348;52.158;5.588;2023-02-08T06:27:21;19.48;;;10.13;;
22250;SDS011;59348;52.158;5.588;2023-02-08T06:29:50;16.83;;;10.00;;
22250;SDS011;59348;52.158;5.588;2023-02-08T06:32:17;19.73;;;10.75;;
22250;SDS011;59348;52.158;5.588;2023-02-08T06:34:44;16.92;;;10.13;;
22250;SDS011;59348;52.158;5.588;2023-02-08T06:37:14;17.80;;;9.63;;
22250;SDS011;59348;52.158;5.588;2023-02-08T06:39:42;17.73;;;10.80;;
22250;SDS011;59348;52.158;5.588;2023-02-08T06:42:09;19.65;;;10.13;;
22250;SDS011;59348;52.158;5.588;2023-02-08T06:44:37;15.20;;;9.70;;
22250;SDS011;59348;52.158;5.588;2023-02-08T06:47:05;19.48;;;10.25;;
22250;SDS011;59348;52.158;5.588;2023-02-08T06:49:32;18.25;;;9.95;;
22250;SDS011;59348;52.158;5.588;2023-02-08T06:52:00;18.95;;;10.30;;
22250;SDS011;59348;52.158;5.588;2023-02-08T06:54:27;19.15;;;11.15;;
22250;SDS011;59348;52.158;5.588;2023-02-08T06:56:54;19.67;;;10.73;;
22250;SDS011;59348;52.158;5.588;2023-02-08T06:59:21;19.13;;;11.38;;
22250;SDS011;59348;52.158;5.588;2023-02-08T07:01:49;21.60;;;10.75;;
22250;SDS011;59348;52.158;5.588;2023-02-08T07:04:18;17.63;;;11.30;;
22250;SDS011;59348;52.158;5.588;2023-02-08T07:06:46;19.63;;;11.27;;
22250;SDS011;59348;52.158;5.588;2023-02-08T07:09:14;18.27;;;11.18;;
22250;SDS011;59348;52.158;5.588;2023-02-08T07:11:47;22.08;;;10.75;;
22250;SDS011;59348;52.158;5.588;2023-02-08T07:14:19;21.17;;;11.25;;
22250;SDS011;59348;52.158;5.588;2023-02-08T07:16:53;20.95;;;11.63;;
22250;SDS011;59348;52.158;5.588;2023-02-08T07:19:22;25.20;;;12.57;;
22250;SDS011;59348;52.158;5.588;2023-02-08T07:21:49;23.40;;;12.60;;
22250;SDS011;59348;52.158;5.588;2023-02-08T07:24:16;26.85;;;14.15;;
22250;SDS011;59348;52.158;5.588;2023-02-08T07:26:44;31.92;;;14.93;;
22250;SDS011;59348;52.158;5.588;2023-02-08T07:29:11;23.08;;;12.90;;
22250;SDS011;59348;52.158;5.588;2023-02-08T07:31:38;22.25;;;12.50;;
22250;SDS011;59348;52.158;5.588;2023-02-08T07:34:06;25.35;;;12.95;;
22250;SDS011;59348;52.158;5.588;2023-02-08T07:36:34;28.20;;;13.95;;
22250;SDS011;59348;52.158;5.588;2023-02-08T07:39:02;24.23;;;13.23;;
22250;SDS011;59348;52.158;5.588;2023-02-08T07:41:30;26.20;;;12.75;;
22250;SDS011;59348;52.158;5.588;2023-02-08T07:43:58;22.20;;;12.48;;
22250;SDS011;59348;52.158;5.588;2023-02-08T07:46:26;23.67;;;13.45;;
22250;SDS011;59348;52.158;5.588;2023-02-08T07:48:53;23.25;;;13.85;;
22250;SDS011;59348;52.158;5.588;2023-02-08T07:51:20;24.23;;;13.02;;
22250;SDS011;59348;52.158;5.588;2023-02-08T07:53:49;25.30;;;12.93;;
22250;SDS011;59348;52.158;5.588;2023-02-08T07:56:16;27.70;;;12.88;;
22250;SDS011;59348;52.158;5.588;2023-02-08T07:58:44;21.35;;;12.27;;
22250;SDS011;59348;52.158;5.588;2023-02-08T08:01:11;23.67;;;12.98;;
22250;SDS011;59348;52.158;5.588;2023-02-08T08:03:38;20.85;;;12.43;;
22250;SDS011;59348;52.158;5.588;2023-02-08T08:06:06;20.85;;;12.63;;
22250;SDS011;59348;52.158;5.588;2023-02-08T08:08:33;21.02;;;12.60;;
22250;SDS011;59348;52.158;5.588;2023-02-08T08:11:02;22.73;;;12.18;;
22250;SDS011;59348;52.158;5.588;2023-02-08T08:13:29;20.27;;;11.65;;
22250;SDS011;59348;52.158;5.588;2023-02-08T08:15:56;21.75;;;12.98;;
22250;SDS011;59348;52.158;5.588;2023-02-08T08:18:24;22.90;;;12.55;;
22250;SDS011;59348;52.158;5.588;2023-02-08T08:20:51;23.73;;;12.90;;
22250;SDS011;59348;52.158;5.588;2023-02-08T08:23:18;21.30;;;12.68;;
22250;SDS011;59348;52.158;5.588;2023-02-08T08:25:45;23.63;;;12.93;;
22250;SDS011;59348;52.158;5.588;2023-02-08T08:28:15;20.15;;;13.15;;
22250;SDS011;59348;52.158;5.588;2023-02-08T08:30:42;25.35;;;13.27;;
22250;SDS011;59348;52.158;5.588;2023-02-08T08:33:10;23.58;;;13.07;;
22250;SDS011;59348;52.158;5.588;2023-02-08T08:35:38;22.13;;;13.20;;
22250;SDS011;59348;52.158;5.588;2023-02-08T08:38:05;20.80;;;12.52;;
22250;SDS011;59348;52.158;5.588;2023-02-08T08:40:32;22.05;;;13.18;;
22250;SDS011;59348;52.158;5.588;2023-02-08T08:42:59;22.67;;;13.20;;
22250;SDS011;59348;52.158;5.588;2023-02-08T08:45:28;25.48;;;12.98;;
22250;SDS011;59348;52.158;5.588;2023-02-08T08:47:55;25.55;;;13.52;;
22250;SDS011;59348;52.158;5.588;2023-02-08T08:50:24;21.83;;;12.38;;
22250;SDS011;59348;52.158;5.588;2023-02-08T08:52:51;23.65;;;12.57;;
22250;SDS011;59348;52.158;5.588;2023-02-08T08:55:19;20.83;;;12.43;;
22250;SDS011;59348;52.158;5.588;2023-02-08T08:57:46;20.30;;;12.20;;
22250;SDS011;59348;52.158;5.588;2023-02-08T09:00:13;29.42;;;12.77;;
22250;SDS011;59348;52.158;5.588;2023-02-08T09:02:42;24.40;;;12.65;;
22250;SDS011;59348;52.158;5.588;2023-02-08T09:05:09;22.55;;;13.07;;
22250;SDS011;59348;52.158;5.588;2023-02-08T09:07:37;17.95;;;12.57;;
22250;SDS011;59348;52.158;5.588;2023-02-08T09:10:04;23.77;;;13.10;;
22250;SDS011;59348;52.158;5.588;2023-02-08T09:12:37;20.45;;;12.50;;
22250;SDS011;59348;52.158;5.588;2023-02-08T09:15:18;19.75;;;12.18;;
22250;SDS011;59348;52.158;5.588;2023-02-08T09:17:55;23.73;;;13.52;;
22250;SDS011;59348;52.158;5.588;2023-02-08T09:20:25;20.38;;;12.43;;
22250;SDS011;59348;52.158;5.588;2023-02-08T09:22:52;20.90;;;12.45;;
22250;SDS011;59348;52.158;5.588;2023-02-08T09:25:21;24.85;;;13.15;;
22250;SDS011;59348;52.158;5.588;2023-02-08T09:27:49;21.88;;;12.60;;
22250;SDS011;59348;52.158;5.588;2023-02-08T09:30:16;20.98;;;12.70;;
22250;SDS011;59348;52.158;5.588;2023-02-08T09:32:43;21.88;;;12.27;;
22250;SDS011;59348;52.158;5.588;2023-02-08T09:35:12;19.10;;;12.43;;
22250;SDS011;59348;52.158;5.588;2023-02-08T09:37:40;21.88;;;12.88;;
22250;SDS011;59348;52.158;5.588;2023-02-08T09:40:09;20.23;;;12.30;;
22250;SDS011;59348;52.158;5.588;2023-02-08T09:42:49;18.92;;;12.45;;
22250;SDS011;59348;52.158;5.588;2023-02-08T09:45:39;22.92;;;11.63;;
22250;SDS011;59348;52.158;5.588;2023-02-08T09:48:17;18.33;;;10.93;;
22250;SDS011;59348;52.158;5.588;2023-02-08T09:50:48;18.60;;;10.70;;
22250;SDS011;59348;52.158;5.588;2023-02-08T09:53:31;18.70;;;10.27;;
22250;SDS011;59348;52.158;5.588;2023-02-08T09:55:59;18.63;;;9.80;;
22250;SDS011;59348;52.158;5.588;2023-02-08T09:58:29;16.02;;;9.90;;
22250;SDS011;59348;52.158;5.588;2023-02-08T10:01:00;21.70;;;10.55;;
22250;SDS011;59348;52.158;5.588;2023-02-08T10:03:30;16.83;;;10.60;;
22250;SDS011;59348;52.158;5.588;2023-02-08T10:05:59;15.77;;;10.35;;
22250;SDS011;59348;52.158;5.588;2023-02-08T10:08:27;17.13;;;9.90;;
22250;SDS011;59348;52.158;5.588;2023-02-08T10:10:58;16.23;;;9.82;;
22250;SDS011;59348;52.158;5.588;2023-02-08T10:13:41;15.60;;;9.27;;
22250;SDS011;59348;52.158;5.588;2023-02-08T10:16:13;15.32;;;9.50;;
22250;SDS011;59348;52.158;5.588;2023-02-08T10:18:45;19.73;;;9.98;;
22250;SDS011;59348;52.158;5.588;2023-02-08T10:21:18;15.13;;;9.30;;
22250;SDS011;59348;52.158;5.588;2023-02-08T10:23:52;14.90;;;8.90;;
22250;SDS011;59348;52.158;5.588;2023-02-08T10:26:23;13.88;;;8.45;;
22250;SDS011;59348;52.158;5.588;2023-02-08T10:29:01;16.95;;;8.25;;
22250;SDS011;59348;52.158;5.588;2023-02-08T10:31:34;14.00;;;8.27;;
22250;SDS011;59348;52.158;5.588;2023-02-08T10:34:07;12.18;;;7.50;;
22250;SDS011;59348;52.158;5.588;2023-02-08T10:36:39;12.52;;;7.47;;
22250;SDS011;59348;52.158;5.588;2023-02-08T10:39:10;15.88;;;6.78;;
22250;SDS011;59348;52.158;5.588;2023-02-08T10:41:40;10.73;;;7.00;;
22250;SDS011;59348;52.158;5.588;2023-02-08T10:44:11;11.00;;;7.13;;
22250;SDS011;59348;52.158;5.588;2023-02-08T10:46:46;13.20;;;7.13;;
22250;SDS011;59348;52.158;5.588;2023-02-08T10:49:17;13.18;;;8.02;;
22250;SDS011;59348;52.158;5.588;2023-02-08T10:51:47;11.98;;;7.57;;
22250;SDS011;59348;52.158;5.588;2023-02-08T10:54:15;15.23;;;7.68;;
22250;SDS011;59348;52.158;5.588;2023-02-08T10:56:43;10.35;;;6.93;;
22250;SDS011;59348;52.158;5.588;2023-02-08T10:59:14;11.88;;;7.43;;
22250;SDS011;59348;52.158;5.588;2023-02-08T11:01:42;12.57;;;7.55;;
22250;SDS011;59348;52.158;5.588;2023-02-08T11:04:10;15.75;;;7.10;;
22250;SDS011;59348;52.158;5.588;2023-02-08T11:06:38;13.52;;;7.35;;
22250;SDS011;59348;52.158;5.588;2023-02-08T11:09:11;14.57;;;8.00;;
22250;SDS011;59348;52.158;5.588;2023-02-08T11:11:45;11.65;;;7.07;;
22250;SDS011;59348;52.158;5.588;2023-02-08T11:14:15;12.27;;;7.55;;
22250;SDS011;59348;52.158;5.588;2023-02-08T11:16:47;12.52;;;6.50;;
22250;SDS011;59348;52.158;5.588;2023-02-08T11:19:18;12.68;;;6.95;;
22250;SDS011;59348;52.158;5.588;2023-02-08T11:21:48;11.85;;;6.53;;
22250;SDS011;59348;52.158;5.588;2023-02-08T11:27:28;9.55;;;6.43;;
22250;SDS011;59348;52.158;5.588;2023-02-08T11:30:17;9.73;;;6.65;;
22250;SDS011;59348;52.158;5.588;2023-02-08T11:32:48;12.77;;;6.80;;
22250;SDS011;59348;52.158;5.588;2023-02-08T11:38:27;11.13;;;6.72;;
22250;SDS011;59348;52.158;5.588;2023-02-08T11:41:29;11.85;;;6.75;;
22250;SDS011;59348;52.158;5.588;2023-02-08T11:46:47;10.90;;;6.90;;
22250;SDS011;59348;52.158;5.588;2023-02-08T11:49:39;16.73;;;7.70;;
22250;SDS011;59348;52.158;5.588;2023-02-08T11:52:28;10.73;;;6.90;;
22250;SDS011;59348;52.158;5.588;2023-02-08T11:55:22;13.38;;;7.72;;
22250;SDS011;59348;52.158;5.588;2023-02-08T12:00:56;11.00;;;7.20;;
22250;SDS011;59348;52.158;5.588;2023-02-08T12:03:29;12.45;;;7.45;;
22250;SDS011;59348;52.158;5.588;2023-02-08T12:06:02;14.98;;;7.70;;
22250;SDS011;59348;52.158;5.588;2023-02-08T12:08:34;10.95;;;6.80;;
22250;SDS011;59348;52.158;5.588;2023-02-08T12:11:06;12.40;;;7.15;;
22250;SDS011;59348;52.158;5.588;2023-02-08T12:14:41;14.02;;;7.65;;
22250;SDS011;59348;52.158;5.588;2023-02-08T12:16:57;14.60;;;7.45;;
22250;SDS011;59348;52.158;5.588;2023-02-08T12:19:32;11.38;;;6.53;;
22250;SDS011;59348;52.158;5.588;2023-02-08T12:22:08;14.80;;;7.15;;
22250;SDS011;59348;52.158;5.588;2023-02-08T12:25:01;13.95;;;7.05;;
22250;SDS011;59348;52.158;5.588;2023-02-08T12:27:40;11.65;;;7.22;;
22250;SDS011;59348;52.158;5.588;2023-02-08T12:30:20;9.98;;;6.10;;
22250;SDS011;59348;52.158;5.588;2023-02-08T12:33:11;10.63;;;6.35;;
22250;SDS011;59348;52.158;5.588;2023-02-08T12:36:09;10.95;;;5.30;;
22250;SDS011;59348;52.158;5.588;2023-02-08T12:39:00;9.55;;;5.85;;
22250;SDS011;59348;52.158;5.588;2023-02-08T12:42:20;9.75;;;5.47;;
22250;SDS011;59348;52.158;5.588;2023-02-08T12:44:42;9.23;;;5.40;;
22250;SDS011;59348;52.158;5.588;2023-02-08T12:47:19;11.68;;;5.45;;
22250;SDS011;59348;52.158;5.588;2023-02-08T12:49:53;10.30;;;4.90;;
22250;SDS011;59348;52.158;5.588;2023-02-08T12:52:29;8.38;;;5.57;;
22250;SDS011;59348;52.158;5.588;2023-02-08T12:54:57;8.05;;;5.13;;
22250;SDS011;59348;52.158;5.588;2023-02-08T12:57:27;8.60;;;5.40;;
22250;SDS011;59348;52.158;5.588;2023-02-08T12:59:57;9.50;;;5.60;;
22250;SDS011;59348;52.158;5.588;2023-02-08T13:02:27;8.90;;;5.32;;
22250;SDS011;59348;52.158;5.588;2023-02-08T13:04:56;9.02;;;5.50;;
22250;SDS011;59348;52.158;5.588;2023-02-08T13:07:26;8.32;;;5.28;;
22250;SDS011;59348;52.158;5.588;2023-02-08T13:09:56;8.60;;;5.60;;
22250;SDS011;59348;52.158;5.588;2023-02-08T13:12:27;8.57;;;5.43;;
22250;SDS011;59348;52.158;5.588;2023-02-08T13:14:57;9.40;;;5.38;;
22250;SDS011;59348;52.158;5.588;2023-02-08T13:17:27;9.38;;;5.35;;
22250;SDS011;59348;52.158;5.588;2023-02-08T13:19:56;8.48;;;4.97;;
22250;SDS011;59348;52.158;5.588;2023-02-08T13:22:24;9.77;;;5.25;;
22250;SDS011;59348;52.158;5.588;2023-02-08T13:24:52;6.47;;;4.70;;
22250;SDS011;59348;52.158;5.588;2023-02-08T13:27:20;7.40;;;4.65;;
22250;SDS011;59348;52.158;5.588;2023-02-08T13:29:47;9.35;;;5.00;;
22250;SDS011;59348;52.158;5.588;2023-02-08T13:32:30;7.50;;;4.75;;
22250;SDS011;59348;52.158;5.588;2023-02-08T13:35:10;7.93;;;4.97;;
22250;SDS011;59348;52.158;5.588;2023-02-08T13:37:49;9.18;;;4.97;;
22250;SDS011;59348;52.158;5.588;2023-02-08T13:40:17;10.35;;;5.30;;
22250;SDS011;59348;52.158;5.588;2023-02-08T13:42:54;11.43;;;5.40;;
22250;SDS011;59348;52.158;5.588;2023-02-08T13:45:26;8.80;;;4.88;;
22250;SDS011;59348;52.158;5.588;2023-02-08T13:47:56;7.53;;;4.82;;
22250;SDS011;59348;52.158;5.588;2023-02-08T13:52:58;5.35;;;3.60;;
22250;SDS011;59348;52.158;5.588;2023-02-08T13:58:28;3.97;;;2.30;;
22250;SDS011;59348;52.158;5.588;2023-02-08T14:01:18;3.72;;;2.35;;
22250;SDS011;59348;52.158;5.588;2023-02-08T14:06:35;6.18;;;2.22;;
22250;SDS011;59348;52.158;5.588;2023-02-08T14:09:04;2.42;;;2.08;;
22250;SDS011;59348;52.158;5.588;2023-02-08T14:11:35;2.80;;;2.10;;
22250;SDS011;59348;52.158;5.588;2023-02-08T14:14:12;6.65;;;2.40;;
22250;SDS011;59348;52.158;5.588;2023-02-08T14:16:41;2.80;;;2.05;;
22250;SDS011;59348;52.158;5.588;2023-02-08T14:19:20;2.97;;;1.85;;
22250;SDS011;59348;52.158;5.588;2023-02-08T14:21:58;2.85;;;2.10;;
22250;SDS011;59348;52.158;5.588;2023-02-08T14:24:27;5.55;;;2.30;;
22250;SDS011;59348;52.158;5.588;2023-02-08T14:27:04;4.88;;;2.20;;
22250;SDS011;59348;52.158;5.588;2023-02-08T14:29:32;4.00;;;2.10;;
22250;SDS011;59348;52.158;5.588;2023-02-08T14:31:59;6.20;;;2.33;;
22250;SDS011;59348;52.158;5.588;2023-02-08T14:34:27;2.80;;;2.20;;
22250;SDS011;59348;52.158;5.588;2023-02-08T14:36:59;2.92;;;1.92;;
22250;SDS011;59348;52.158;5.588;2023-02-08T14:39:27;1.98;;;1.75;;
22250;SDS011;59348;52.158;5.588;2023-02-08T14:41:57;2.40;;;1.80;;
22250;SDS011;59348;52.158;5.588;2023-02-08T14:47:13;3.15;;;2.00;;
22250;SDS011;59348;52.158;5.588;2023-02-08T14:50:04;2.55;;;1.92;;
22250;SDS011;59348;52.158;5.588;2023-02-08T14:52:35;2.53;;;2.00;;
22250;SDS011;59348;52.158;5.588;2023-02-08T14:55:05;3.83;;;2.20;;
22250;SDS011;59348;52.158;5.588;2023-02-08T14:57:34;2.95;;;2.10;;
22250;SDS011;59348;52.158;5.588;2023-02-08T15:00:03;4.45;;;2.30;;
22250;SDS011;59348;52.158;5.588;2023-02-08T15:02:31;2.75;;;1.77;;
22250;SDS011;59348;52.158;5.588;2023-02-08T15:04:59;3.90;;;2.00;;
22250;SDS011;59348;52.158;5.588;2023-02-08T15:07:28;3.47;;;2.35;;
22250;SDS011;59348;52.158;5.588;2023-02-08T15:09:58;4.00;;;2.40;;
22250;SDS011;59348;52.158;5.588;2023-02-08T15:12:28;3.75;;;2.20;;
22250;SDS011;59348;52.158;5.588;2023-02-08T15:14:57;3.45;;;2.25;;
22250;SDS011;59348;52.158;5.588;2023-02-08T15:17:29;3.47;;;2.30;;
22250;SDS011;59348;52.158;5.588;2023-02-08T15:19:57;3.70;;;2.10;;
22250;SDS011;59348;52.158;5.588;2023-02-08T15:22:30;4.03;;;2.30;;
22250;SDS011;59348;52.158;5.588;2023-02-08T15:25:23;3.25;;;2.28;;
22250;SDS011;59348;52.158;5.588;2023-02-08T15:27:58;3.72;;;2.25;;
22250;SDS011;59348;52.158;5.588;2023-02-08T15:30:30;5.18;;;2.50;;
22250;SDS011;59348;52.158;5.588;2023-02-08T15:33:13;5.32;;;2.40;;